sensor_id;sensor_type;location;lat;lon;timestamp;temperature;humidity
70820;DHT22;58439;51.046;13.692;2023-03-14T00:06:30;10.70;99.90
70820;DHT22;58439;51.046;13.692;2023-03-14T00:09:30;10.70;99.90
70820;DHT22;58439;51.046;13.692;2023-03-14T00:17:30;10.70;99.90
70820;DHT22;58439;51.046;13.692;2023-03-14T00:20:45;10.60;99.90
70820;DHT22;58439;51.046;13.692;2023-03-14T00:23:37;10.60;99.90
70820;DHT22;58439;51.046;13.692;2023-03-14T00:26:14;10.40;99.90
70820;DHT22;58439;51.046;13.692;2023-03-14T00:28:44;10.40;99.90
70820;DHT22;58439;51.046;13.692;2023-03-14T00:31:14;10.30;99.90
70820;DHT22;58439;51.046;13.692;2023-03-14T00:33:47;10.20;99.90
70820;DHT22;58439;51.046;13.692;2023-03-14T00:36:17;10.20;99.90
70820;DHT22;58439;51.046;13.692;2023-03-14T00:38:48;10.10;99.90
70820;DHT22;58439;51.046;13.692;2023-03-14T00:41:22;10.10;99.90
70820;DHT22;58439;51.046;13.692;2023-03-14T00:43:51;10.00;99.90
70820;DHT22;58439;51.046;13.692;2023-03-14T00:46:44;10.00;99.90
70820;DHT22;58439;51.046;13.692;2023-03-14T00:49:15;10.00;99.90
70820;DHT22;58439;51.046;13.692;2023-03-14T00:51:43;10.00;99.90
70820;DHT22;58439;51.046;13.692;2023-03-14T00:54:11;10.00;99.90
70820;DHT22;58439;51.046;13.692;2023-03-14T00:56:38;10.00;99.90
70820;DHT22;58439;51.046;13.692;2023-03-14T00:59:07;10.00;99.90
70820;DHT22;58439;51.046;13.692;2023-03-14T01:01:35;9.90;99.90
70820;DHT22;58439;51.046;13.692;2023-03-14T01:04:12;9.90;99.90
70820;DHT22;58439;51.046;13.692;2023-03-14T01:06:40;9.90;99.90
70820;DHT22;58439;51.046;13.692;2023-03-14T01:09:10;9.80;99.90
70820;DHT22;58439;51.046;13.692;2023-03-14T01:11:38;9.80;99.90
70820;DHT22;58439;51.046;13.692;2023-03-14T01:14:06;9.80;99.90
70820;DHT22;58439;51.046;13.692;2023-03-14T01:16:34;9.90;99.90
70820;DHT22;58439;51.046;13.692;2023-03-14T01:19:09;9.90;99.90
70820;DHT22;58439;51.046;13.692;2023-03-14T01:21:39;10.00;99.90
70820;DHT22;58439;51.046;13.692;2023-03-14T01:24:11;10.20;99.90
70820;DHT22;58439;51.046;13.692;2023-03-14T01:30:50;10.30;99.90
70820;DHT22;58439;51.046;13.692;2023-03-14T01:33:18;10.40;99.90
70820;DHT22;58439;51.046;13.692;2023-03-14T01:35:52;10.50;99.90
70820;DHT22;58439;51.046;13.692;2023-03-14T01:38:19;10.50;99.90
70820;DHT22;58439;51.046;13.692;2023-03-14T01:40:49;10.60;99.90
70820;DHT22;58439;51.046;13.692;2023-03-14T01:43:19;10.70;99.90
70820;DHT22;58439;51.046;13.692;2023-03-14T01:48:55;10.70;99.90
70820;DHT22;58439;51.046;13.692;2023-03-14T01:58:14;10.70;99.90
70820;DHT22;58439;51.046;13.692;2023-03-14T02:06:08;10.70;99.90
70820;DHT22;58439;51.046;13.692;2023-03-14T02:10:41;10.70;99.90
70820;DHT22;58439;51.046;13.692;2023-03-14T02:17:42;10.80;99.90
70820;DHT22;58439;51.046;13.692;2023-03-14T02:20:50;10.90;99.90
70820;DHT22;58439;51.046;13.692;2023-03-14T02:28:46;11.00;99.90
70820;DHT22;58439;51.046;13.692;2023-03-14T02:32:12;11.00;99.90
70820;DHT22;58439;51.046;13.692;2023-03-14T02:41:03;11.00;99.90
70820;DHT22;58439;51.046;13.692;2023-03-14T02:44:15;11.00;99.90
70820;DHT22;58439;51.046;13.692;2023-03-14T02:46:52;11.00;99.90
70820;DHT22;58439;51.046;13.692;2023-03-14T02:50:10;11.00;99.90
70820;DHT22;58439;51.046;13.692;2023-03-14T03:22:06;11.00;99.90
70820;DHT22;58439;51.046;13.692;2023-03-14T03:25:38;11.10;99.90
70820;DHT22;58439;51.046;13.692;2023-03-14T03:29:20;11.00;99.90
70820;DHT22;58439;51.046;13.692;2023-03-14T03:32:41;11.00;99.90
70820;DHT22;58439;51.046;13.692;2023-03-14T03:35:45;10.90;99.90
70820;DHT22;58439;51.046;13.692;2023-03-14T03:39:36;11.00;99.90
70820;DHT22;58439;51.046;13.692;2023-03-14T03:42:51;10.90;99.90
70820;DHT22;58439;51.046;13.692;2023-03-14T03:46:42;11.00;99.90
70820;DHT22;58439;51.046;13.692;2023-03-14T03:49:31;11.10;99.90
70820;DHT22;58439;51.046;13.692;2023-03-14T03:57:53;11.20;99.90
70820;DHT22;58439;51.046;13.692;2023-03-14T04:00:54;11.20;99.90
70820;DHT22;58439;51.046;13.692;2023-03-14T04:04:19;11.20;99.90
70820;DHT22;58439;51.046;13.692;2023-03-14T04:07:02;11.20;99.90
70820;DHT22;58439;51.046;13.692;2023-03-14T04:13:40;11.20;99.90
70820;DHT22;58439;51.046;13.692;2023-03-14T04:22:22;11.20;99.90
70820;DHT22;58439;51.046;13.692;2023-03-14T04:29:25;11.00;99.90
70820;DHT22;58439;51.046;13.692;2023-03-14T04:31:56;11.10;99.90
70820;DHT22;58439;51.046;13.692;2023-03-14T04:34:25;11.00;99.90
70820;DHT22;58439;51.046;13.692;2023-03-14T04:36:55;11.00;99.90
70820;DHT22;58439;51.046;13.692;2023-03-14T04:39:30;10.90;99.90
70820;DHT22;58439;51.046;13.692;2023-03-14T04:42:07;10.80;99.90
70820;DHT22;58439;51.046;13.692;2023-03-14T04:44:37;10.80;99.90
70820;DHT22;58439;51.046;13.692;2023-03-14T04:47:10;10.90;99.90
70820;DHT22;58439;51.046;13.692;2023-03-14T04:49:40;11.00;99.90
70820;DHT22;58439;51.046;13.692;2023-03-14T05:01:33;11.10;99.90
70820;DHT22;58439;51.046;13.692;2023-03-14T05:04:25;11.10;99.90
70820;DHT22;58439;51.046;13.692;2023-03-14T05:07:09;11.10;99.90
70820;DHT22;58439;51.046;13.692;2023-03-14T05:09:58;11.10;99.90
70820;DHT22;58439;51.046;13.692;2023-03-14T05:12:45;11.10;99.90
70820;DHT22;58439;51.046;13.692;2023-03-14T05:16:09;11.20;99.90
70820;DHT22;58439;51.046;13.692;2023-03-14T05:18:45;11.20;99.90
70820;DHT22;58439;51.046;13.692;2023-03-14T05:22:10;11.20;99.90
70820;DHT22;58439;51.046;13.692;2023-03-14T05:25:01;11.20;99.90
70820;DHT22;58439;51.046;13.692;2023-03-14T05:28:13;11.30;99.70
70820;DHT22;58439;51.046;13.692;2023-03-14T05:30:51;11.20;99.80
70820;DHT22;58439;51.046;13.692;2023-03-14T05:33:31;11.20;99.90
70820;DHT22;58439;51.046;13.692;2023-03-14T05:39:37;11.20;99.40
70820;DHT22;58439;51.046;13.692;2023-03-14T05:42:34;11.20;99.20
70820;DHT22;58439;51.046;13.692;2023-03-14T05:45:16;11.30;98.30
70820;DHT22;58439;51.046;13.692;2023-03-14T05:48:17;11.40;98.10
70820;DHT22;58439;51.046;13.692;2023-03-14T05:51:18;11.40;97.80
70820;DHT22;58439;51.046;13.692;2023-03-14T05:54:08;11.40;97.60
70820;DHT22;58439;51.046;13.692;2023-03-14T05:57:06;11.40;98.00
70820;DHT22;58439;51.046;13.692;2023-03-14T05:59:59;11.30;97.90
70820;DHT22;58439;51.046;13.692;2023-03-14T06:03:06;11.30;97.80
70820;DHT22;58439;51.046;13.692;2023-03-14T06:05:43;11.40;96.90
70820;DHT22;58439;51.046;13.692;2023-03-14T06:08:11;11.50;96.80
70820;DHT22;58439;51.046;13.692;2023-03-14T06:10:56;11.50;96.70
70820;DHT22;58439;51.046;13.692;2023-03-14T06:13:29;11.50;96.70
70820;DHT22;58439;51.046;13.692;2023-03-14T06:16:19;11.50;96.50
70820;DHT22;58439;51.046;13.692;2023-03-14T06:18:52;11.60;96.20
70820;DHT22;58439;51.046;13.692;2023-03-14T06:21:27;11.60;96.30
70820;DHT22;58439;51.046;13.692;2023-03-14T06:24:04;11.50;96.40
70820;DHT22;58439;51.046;13.692;2023-03-14T06:26:38;11.50;96.60
70820;DHT22;58439;51.046;13.692;2023-03-14T06:29:08;11.50;96.10
70820;DHT22;58439;51.046;13.692;2023-03-14T06:31:39;11.60;95.90
70820;DHT22;58439;51.046;13.692;2023-03-14T06:34:09;11.60;96.00
70820;DHT22;58439;51.046;13.692;2023-03-14T06:40:29;11.60;96.20
70820;DHT22;58439;51.046;13.692;2023-03-14T06:43:36;11.60;96.40
70820;DHT22;58439;51.046;13.692;2023-03-14T06:46:06;11.60;96.40
70820;DHT22;58439;51.046;13.692;2023-03-14T06:48:37;11.60;96.50
70820;DHT22;58439;51.046;13.692;2023-03-14T06:51:36;11.70;96.40
70820;DHT22;58439;51.046;13.692;2023-03-14T06:54:06;11.70;96.20
70820;DHT22;58439;51.046;13.692;2023-03-14T06:57:01;11.80;95.90
70820;DHT22;58439;51.046;13.692;2023-03-14T06:59:31;11.80;95.50
70820;DHT22;58439;51.046;13.692;2023-03-14T07:02:02;11.90;95.10
70820;DHT22;58439;51.046;13.692;2023-03-14T07:07:39;11.90;95.00
70820;DHT22;58439;51.046;13.692;2023-03-14T07:10:56;11.90;95.20
70820;DHT22;58439;51.046;13.692;2023-03-14T07:13:24;11.90;95.10
70820;DHT22;58439;51.046;13.692;2023-03-14T07:16:00;12.00;95.00
70820;DHT22;58439;51.046;13.692;2023-03-14T07:19:00;12.00;94.90
70820;DHT22;58439;51.046;13.692;2023-03-14T07:22:39;12.00;94.50
70820;DHT22;58439;51.046;13.692;2023-03-14T07:25:08;12.10;94.20
70820;DHT22;58439;51.046;13.692;2023-03-14T07:28:01;12.10;94.40
70820;DHT22;58439;51.046;13.692;2023-03-14T07:31:25;12.10;94.50
70820;DHT22;58439;51.046;13.692;2023-03-14T07:33:59;12.10;94.40
70820;DHT22;58439;51.046;13.692;2023-03-14T07:41:03;12.10;94.70
70820;DHT22;58439;51.046;13.692;2023-03-14T07:44:05;12.20;94.50
70820;DHT22;58439;51.046;13.692;2023-03-14T07:47:16;12.20;94.40
70820;DHT22;58439;51.046;13.692;2023-03-14T07:50:13;12.20;94.70
70820;DHT22;58439;51.046;13.692;2023-03-14T07:53:58;12.30;94.40
70820;DHT22;58439;51.046;13.692;2023-03-14T07:57:14;12.30;94.40
70820;DHT22;58439;51.046;13.692;2023-03-14T08:00:32;12.30;94.30
70820;DHT22;58439;51.046;13.692;2023-03-14T08:03:18;12.30;94.10
70820;DHT22;58439;51.046;13.692;2023-03-14T08:06:44;12.30;94.10
70820;DHT22;58439;51.046;13.692;2023-03-14T08:09:40;12.30;94.40
70820;DHT22;58439;51.046;13.692;2023-03-14T08:12:53;12.40;94.40
70820;DHT22;58439;51.046;13.692;2023-03-14T08:15:32;12.40;94.30
70820;DHT22;58439;51.046;13.692;2023-03-14T08:18:05;12.40;93.10
70820;DHT22;58439;51.046;13.692;2023-03-14T08:28:57;12.70;92.00
70820;DHT22;58439;51.046;13.692;2023-03-14T08:31:31;13.00;88.90
70820;DHT22;58439;51.046;13.692;2023-03-14T08:35:08;13.10;89.30
70820;DHT22;58439;51.046;13.692;2023-03-14T08:37:49;13.20;84.50
70820;DHT22;58439;51.046;13.692;2023-03-14T08:41:20;13.20;82.20
70820;DHT22;58439;51.046;13.692;2023-03-14T08:43:48;13.30;80.20
70820;DHT22;58439;51.046;13.692;2023-03-14T08:46:25;13.30;79.20
70820;DHT22;58439;51.046;13.692;2023-03-14T08:48:55;13.30;77.60
70820;DHT22;58439;51.046;13.692;2023-03-14T09:07:52;13.60;76.20
70820;DHT22;58439;51.046;13.692;2023-03-14T09:28:34;13.70;69.20
70820;DHT22;58439;51.046;13.692;2023-03-14T09:36:15;13.70;73.60
70820;DHT22;58439;51.046;13.692;2023-03-14T09:45:02;13.60;71.60
70820;DHT22;58439;51.046;13.692;2023-03-14T09:47:39;13.50;73.10
70820;DHT22;58439;51.046;13.692;2023-03-14T09:50:37;13.40;73.90
70820;DHT22;58439;51.046;13.692;2023-03-14T09:53:27;13.40;73.90
70820;DHT22;58439;51.046;13.692;2023-03-14T09:57:08;13.30;75.20
70820;DHT22;58439;51.046;13.692;2023-03-14T09:59:44;13.20;73.90
70820;DHT22;58439;51.046;13.692;2023-03-14T10:02:22;13.20;75.30
70820;DHT22;58439;51.046;13.692;2023-03-14T10:04:53;13.10;75.40
70820;DHT22;58439;51.046;13.692;2023-03-14T10:07:29;13.10;76.10
70820;DHT22;58439;51.046;13.692;2023-03-14T10:10:00;13.10;77.00
70820;DHT22;58439;51.046;13.692;2023-03-14T10:12:33;13.10;77.40
70820;DHT22;58439;51.046;13.692;2023-03-14T10:15:32;13.10;73.80
70820;DHT22;58439;51.046;13.692;2023-03-14T10:26:03;13.10;74.90
70820;DHT22;58439;51.046;13.692;2023-03-14T10:29:25;13.10;73.40
70820;DHT22;58439;51.046;13.692;2023-03-14T10:36:25;13.10;72.30
70820;DHT22;58439;51.046;13.692;2023-03-14T10:39:37;13.30;72.20
70820;DHT22;58439;51.046;13.692;2023-03-14T10:42:34;13.20;72.20
70820;DHT22;58439;51.046;13.692;2023-03-14T10:45:44;13.20;70.60
70820;DHT22;58439;51.046;13.692;2023-03-14T10:48:22;13.20;70.30
70820;DHT22;58439;51.046;13.692;2023-03-14T10:51:07;13.20;71.20
70820;DHT22;58439;51.046;13.692;2023-03-14T10:56:19;13.20;71.40
70820;DHT22;58439;51.046;13.692;2023-03-14T10:58:53;13.20;71.00
70820;DHT22;58439;51.046;13.692;2023-03-14T11:05:31;13.30;70.50
70820;DHT22;58439;51.046;13.692;2023-03-14T11:08:14;13.30;71.00
70820;DHT22;58439;51.046;13.692;2023-03-14T11:10:47;13.30;70.60
70820;DHT22;58439;51.046;13.692;2023-03-14T11:13:26;13.30;71.30
70820;DHT22;58439;51.046;13.692;2023-03-14T11:16:07;13.30;71.30
70820;DHT22;58439;51.046;13.692;2023-03-14T11:30:55;13.50;68.30
70820;DHT22;58439;51.046;13.692;2023-03-14T11:38:27;13.90;62.80
70820;DHT22;58439;51.046;13.692;2023-03-14T11:41:28;14.20;59.60
70820;DHT22;58439;51.046;13.692;2023-03-14T11:44:03;14.30;58.50
70820;DHT22;58439;51.046;13.692;2023-03-14T11:46:43;14.30;57.80
70820;DHT22;58439;51.046;13.692;2023-03-14T11:49:58;14.20;58.10
70820;DHT22;58439;51.046;13.692;2023-03-14T11:53:09;14.10;58.80
70820;DHT22;58439;51.046;13.692;2023-03-14T11:55:42;14.00;60.30
70820;DHT22;58439;51.046;13.692;2023-03-14T11:58:20;13.90;60.90
70820;DHT22;58439;51.046;13.692;2023-03-14T12:00:52;13.90;61.30
70820;DHT22;58439;51.046;13.692;2023-03-14T12:03:35;13.90;61.10
70820;DHT22;58439;51.046;13.692;2023-03-14T12:08:58;14.10;60.40
70820;DHT22;58439;51.046;13.692;2023-03-14T12:14:00;14.40;55.50
70820;DHT22;58439;51.046;13.692;2023-03-14T12:16:36;14.50;54.80
70820;DHT22;58439;51.046;13.692;2023-03-14T12:21:58;14.80;54.60
70820;DHT22;58439;51.046;13.692;2023-03-14T12:24:30;15.00;53.10
70820;DHT22;58439;51.046;13.692;2023-03-14T12:27:02;15.30;52.00
70820;DHT22;58439;51.046;13.692;2023-03-14T12:29:32;15.70;50.60
70820;DHT22;58439;51.046;13.692;2023-03-14T12:32:24;15.70;49.00
70820;DHT22;58439;51.046;13.692;2023-03-14T12:34:53;15.50;49.30
70820;DHT22;58439;51.046;13.692;2023-03-14T12:37:35;15.40;50.10
70820;DHT22;58439;51.046;13.692;2023-03-14T12:40:37;15.40;50.30
70820;DHT22;58439;51.046;13.692;2023-03-14T12:43:25;15.40;49.40
70820;DHT22;58439;51.046;13.692;2023-03-14T12:46:19;15.30;49.60
70820;DHT22;58439;51.046;13.692;2023-03-14T12:51:34;16.60;47.70
70820;DHT22;58439;51.046;13.692;2023-03-14T13:02:42;18.00;43.90
70820;DHT22;58439;51.046;13.692;2023-03-14T13:05:29;18.50;41.00
70820;DHT22;58439;51.046;13.692;2023-03-14T13:10:48;19.20;38.80
70820;DHT22;58439;51.046;13.692;2023-03-14T13:13:22;19.10;38.90
70820;DHT22;58439;51.046;13.692;2023-03-14T13:16:00;19.30;37.70
70820;DHT22;58439;51.046;13.692;2023-03-14T13:19:00;19.30;38.30
70820;DHT22;58439;51.046;13.692;2023-03-14T13:21:35;18.80;38.00
70820;DHT22;58439;51.046;13.692;2023-03-14T13:24:07;18.00;39.60
70820;DHT22;58439;51.046;13.692;2023-03-14T13:27:42;17.40;41.10
70820;DHT22;58439;51.046;13.692;2023-03-14T13:30:19;17.00;42.30
70820;DHT22;58439;51.046;13.692;2023-03-14T13:32:50;16.80;42.90
70820;DHT22;58439;51.046;13.692;2023-03-14T13:35:23;16.80;43.60
70820;DHT22;58439;51.046;13.692;2023-03-14T13:37:58;16.80;42.80
70820;DHT22;58439;51.046;13.692;2023-03-14T13:40:45;16.60;43.10
70820;DHT22;58439;51.046;13.692;2023-03-14T13:43:20;16.90;43.10
70820;DHT22;58439;51.046;13.692;2023-03-14T13:46:03;17.20;42.30
70820;DHT22;58439;51.046;13.692;2023-03-14T13:48:54;16.90;42.80
70820;DHT22;58439;51.046;13.692;2023-03-14T13:51:25;16.70;44.10
70820;DHT22;58439;51.046;13.692;2023-03-14T13:53:59;16.70;44.00
70820;DHT22;58439;51.046;13.692;2023-03-14T13:57:10;16.60;43.60
70820;DHT22;58439;51.046;13.692;2023-03-14T14:00:24;16.40;43.70
70820;DHT22;58439;51.046;13.692;2023-03-14T14:03:14;16.10;44.70
70820;DHT22;58439;51.046;13.692;2023-03-14T14:05:44;15.90;45.40
70820;DHT22;58439;51.046;13.692;2023-03-14T14:08:12;15.80;45.50
70820;DHT22;58439;51.046;13.692;2023-03-14T14:10:40;15.60;45.80
70820;DHT22;58439;51.046;13.692;2023-03-14T14:13:14;15.50;46.20
70820;DHT22;58439;51.046;13.692;2023-03-14T14:16:09;15.40;46.90
70820;DHT22;58439;51.046;13.692;2023-03-14T14:18:38;15.30;47.00
70820;DHT22;58439;51.046;13.692;2023-03-14T14:21:06;15.50;47.00
70820;DHT22;58439;51.046;13.692;2023-03-14T14:23:36;15.70;46.40
70820;DHT22;58439;51.046;13.692;2023-03-14T14:26:17;16.40;45.40
70820;DHT22;58439;51.046;13.692;2023-03-14T14:29:05;17.60;42.20
70820;DHT22;58439;51.046;13.692;2023-03-14T14:31:33;17.90;40.90
70820;DHT22;58439;51.046;13.692;2023-03-14T14:37:31;18.60;39.30
70820;DHT22;58439;51.046;13.692;2023-03-14T14:40:20;19.20;38.10
70820;DHT22;58439;51.046;13.692;2023-03-14T14:46:15;18.10;37.80
70820;DHT22;58439;51.046;13.692;2023-03-14T14:48:47;16.80;40.30
70820;DHT22;58439;51.046;13.692;2023-03-14T14:51:26;16.20;42.20
70820;DHT22;58439;51.046;13.692;2023-03-14T14:54:32;16.00;43.00
70820;DHT22;58439;51.046;13.692;2023-03-14T14:57:04;16.00;43.30
70820;DHT22;58439;51.046;13.692;2023-03-14T15:08:37;18.00;40.90
70820;DHT22;58439;51.046;13.692;2023-03-14T15:11:05;19.00;38.40
70820;DHT22;58439;51.046;13.692;2023-03-14T15:13:33;19.00;37.30
70820;DHT22;58439;51.046;13.692;2023-03-14T15:16:02;18.50;37.70
70820;DHT22;58439;51.046;13.692;2023-03-14T15:18:30;17.70;39.30
70820;DHT22;58439;51.046;13.692;2023-03-14T15:20:57;17.10;40.80
70820;DHT22;58439;51.046;13.692;2023-03-14T15:23:28;16.60;42.00
70820;DHT22;58439;51.046;13.692;2023-03-14T15:31:18;16.00;43.80
70820;DHT22;58439;51.046;13.692;2023-03-14T15:33:59;15.40;46.00
70820;DHT22;58439;51.046;13.692;2023-03-14T15:36:30;15.10;47.10
70820;DHT22;58439;51.046;13.692;2023-03-14T15:39:02;15.00;47.70
70820;DHT22;58439;51.046;13.692;2023-03-14T15:41:33;14.90;48.10
70820;DHT22;58439;51.046;13.692;2023-03-14T15:44:00;14.80;48.20
70820;DHT22;58439;51.046;13.692;2023-03-14T15:46:29;14.70;48.60
70820;DHT22;58439;51.046;13.692;2023-03-14T15:49:00;14.70;48.90
70820;DHT22;58439;51.046;13.692;2023-03-14T15:51:28;14.60;49.30
70820;DHT22;58439;51.046;13.692;2023-03-14T15:53:55;14.60;49.90
70820;DHT22;58439;51.046;13.692;2023-03-14T15:56:26;14.50;50.00
70820;DHT22;58439;51.046;13.692;2023-03-14T15:58:58;14.50;50.20
70820;DHT22;58439;51.046;13.692;2023-03-14T16:01:26;14.40;50.50
70820;DHT22;58439;51.046;13.692;2023-03-14T16:03:54;14.30;50.90
70820;DHT22;58439;51.046;13.692;2023-03-14T16:06:25;14.30;51.70
70820;DHT22;58439;51.046;13.692;2023-03-14T16:08:53;14.20;52.30
70820;DHT22;58439;51.046;13.692;2023-03-14T16:11:22;14.20;53.30
70820;DHT22;58439;51.046;13.692;2023-03-14T16:13:51;14.10;54.60
70820;DHT22;58439;51.046;13.692;2023-03-14T16:16:19;14.00;56.70
70820;DHT22;58439;51.046;13.692;2023-03-14T16:18:47;14.00;58.30
70820;DHT22;58439;51.046;13.692;2023-03-14T16:21:19;13.90;60.60
70820;DHT22;58439;51.046;13.692;2023-03-14T16:23:48;13.80;63.40
70820;DHT22;58439;51.046;13.692;2023-03-14T16:26:19;13.70;67.40
70820;DHT22;58439;51.046;13.692;2023-03-14T16:28:47;13.50;78.50
70820;DHT22;58439;51.046;13.692;2023-03-14T16:31:17;13.00;90.80
70820;DHT22;58439;51.046;13.692;2023-03-14T16:33:47;12.50;95.10
70820;DHT22;58439;51.046;13.692;2023-03-14T16:36:15;12.00;98.60
70820;DHT22;58439;51.046;13.692;2023-03-14T16:38:43;11.50;99.90
70820;DHT22;58439;51.046;13.692;2023-03-14T16:41:15;11.00;99.90
70820;DHT22;58439;51.046;13.692;2023-03-14T16:43:45;10.70;99.90
70820;DHT22;58439;51.046;13.692;2023-03-14T16:46:18;10.50;99.90
70820;DHT22;58439;51.046;13.692;2023-03-14T16:48:48;9.70;99.90
70820;DHT22;58439;51.046;13.692;2023-03-14T16:51:16;8.80;99.90
70820;DHT22;58439;51.046;13.692;2023-03-14T16:53:44;8.00;99.90
70820;DHT22;58439;51.046;13.692;2023-03-14T16:56:11;7.60;99.90
70820;DHT22;58439;51.046;13.692;2023-03-14T16:58:39;7.20;99.90
70820;DHT22;58439;51.046;13.692;2023-03-14T17:01:08;7.00;99.90
70820;DHT22;58439;51.046;13.692;2023-03-14T17:03:42;6.90;99.90
70820;DHT22;58439;51.046;13.692;2023-03-14T17:06:20;6.80;99.90
70820;DHT22;58439;51.046;13.692;2023-03-14T17:08:55;6.70;99.90
70820;DHT22;58439;51.046;13.692;2023-03-14T17:11:24;6.70;99.90
70820;DHT22;58439;51.046;13.692;2023-03-14T17:13:52;6.60;99.90
70820;DHT22;58439;51.046;13.692;2023-03-14T17:16:19;6.60;99.90
70820;DHT22;58439;51.046;13.692;2023-03-14T17:18:49;6.50;99.90
70820;DHT22;58439;51.046;13.692;2023-03-14T17:21:20;6.40;99.90
70820;DHT22;58439;51.046;13.692;2023-03-14T17:24:10;6.30;99.90
70820;DHT22;58439;51.046;13.692;2023-03-14T17:26:44;6.20;99.90
70820;DHT22;58439;51.046;13.692;2023-03-14T17:29:15;6.00;99.90
70820;DHT22;58439;51.046;13.692;2023-03-14T17:31:42;6.00;99.90
70820;DHT22;58439;51.046;13.692;2023-03-14T17:34:09;5.90;99.90
70820;DHT22;58439;51.046;13.692;2023-03-14T17:36:37;5.70;99.90
70820;DHT22;58439;51.046;13.692;2023-03-14T17:39:05;5.50;99.90
70820;DHT22;58439;51.046;13.692;2023-03-14T17:41:35;5.40;99.90
70820;DHT22;58439;51.046;13.692;2023-03-14T17:44:02;5.20;99.90
70820;DHT22;58439;51.046;13.692;2023-03-14T17:46:29;5.10;99.90
70820;DHT22;58439;51.046;13.692;2023-03-14T17:48:57;5.00;99.90
70820;DHT22;58439;51.046;13.692;2023-03-14T17:51:25;4.80;99.90
70820;DHT22;58439;51.046;13.692;2023-03-14T17:53:52;4.60;99.90
70820;DHT22;58439;51.046;13.692;2023-03-14T17:56:19;4.40;99.90
70820;DHT22;58439;51.046;13.692;2023-03-14T17:58:46;4.20;99.90
70820;DHT22;58439;51.046;13.692;2023-03-14T18:01:17;4.10;99.90
70820;DHT22;58439;51.046;13.692;2023-03-14T18:04:26;4.00;99.90
70820;DHT22;58439;51.046;13.692;2023-03-14T18:06:53;4.00;99.90
70820;DHT22;58439;51.046;13.692;2023-03-14T18:09:21;3.90;99.90
70820;DHT22;58439;51.046;13.692;2023-03-14T18:11:48;3.90;99.90
70820;DHT22;58439;51.046;13.692;2023-03-14T18:14:27;3.80;99.90
70820;DHT22;58439;51.046;13.692;2023-03-14T18:16:55;3.80;99.90
70820;DHT22;58439;51.046;13.692;2023-03-14T18:19:24;3.80;99.90
70820;DHT22;58439;51.046;13.692;2023-03-14T18:22:48;3.70;99.90
70820;DHT22;58439;51.046;13.692;2023-03-14T18:25:15;3.70;99.90
70820;DHT22;58439;51.046;13.692;2023-03-14T18:27:45;3.60;99.90
70820;DHT22;58439;51.046;13.692;2023-03-14T18:30:13;3.60;99.90
70820;DHT22;58439;51.046;13.692;2023-03-14T18:32:43;3.60;99.90
70820;DHT22;58439;51.046;13.692;2023-03-14T18:35:11;3.60;99.90
70820;DHT22;58439;51.046;13.692;2023-03-14T18:37:38;3.70;99.90
70820;DHT22;58439;51.046;13.692;2023-03-14T18:40:06;3.70;99.90
70820;DHT22;58439;51.046;13.692;2023-03-14T18:42:36;3.70;99.90
70820;DHT22;58439;51.046;13.692;2023-03-14T18:45:03;3.80;99.90
70820;DHT22;58439;51.046;13.692;2023-03-14T18:47:32;3.80;99.90
70820;DHT22;58439;51.046;13.692;2023-03-14T18:50:04;3.80;99.90
70820;DHT22;58439;51.046;13.692;2023-03-14T18:53:21;3.80;99.90
70820;DHT22;58439;51.046;13.692;2023-03-14T18:55:48;3.70;99.90
70820;DHT22;58439;51.046;13.692;2023-03-14T18:58:15;3.70;99.90
70820;DHT22;58439;51.046;13.692;2023-03-14T19:00:48;3.70;99.90
70820;DHT22;58439;51.046;13.692;2023-03-14T19:03:15;3.60;99.90
70820;DHT22;58439;51.046;13.692;2023-03-14T19:05:43;3.70;99.90
70820;DHT22;58439;51.046;13.692;2023-03-14T19:08:10;3.70;99.90
70820;DHT22;58439;51.046;13.692;2023-03-14T19:10:41;3.70;99.90
70820;DHT22;58439;51.046;13.692;2023-03-14T19:13:08;3.70;99.90
70820;DHT22;58439;51.046;13.692;2023-03-14T19:15:37;3.70;99.90
70820;DHT22;58439;51.046;13.692;2023-03-14T19:18:08;3.70;99.90
70820;DHT22;58439;51.046;13.692;2023-03-14T19:20:38;3.70;99.90
70820;DHT22;58439;51.046;13.692;2023-03-14T19:23:08;3.70;99.90
70820;DHT22;58439;51.046;13.692;2023-03-14T19:25:35;3.70;99.90
70820;DHT22;58439;51.046;13.692;2023-03-14T19:28:19;3.80;99.90
70820;DHT22;58439;51.046;13.692;2023-03-14T19:31:17;3.80;99.90
70820;DHT22;58439;51.046;13.692;2023-03-14T19:33:44;3.80;99.90
70820;DHT22;58439;51.046;13.692;2023-03-14T19:36:39;3.80;99.90
70820;DHT22;58439;51.046;13.692;2023-03-14T19:39:06;3.80;99.90
70820;DHT22;58439;51.046;13.692;2023-03-14T19:41:34;3.80;99.90
70820;DHT22;58439;51.046;13.692;2023-03-14T19:44:01;3.80;99.90
70820;DHT22;58439;51.046;13.692;2023-03-14T19:46:29;3.80;99.90
70820;DHT22;58439;51.046;13.692;2023-03-14T19:49:00;3.80;99.90
70820;DHT22;58439;51.046;13.692;2023-03-14T19:51:28;3.70;99.90
70820;DHT22;58439;51.046;13.692;2023-03-14T19:53:58;3.70;99.90
70820;DHT22;58439;51.046;13.692;2023-03-14T19:56:30;3.60;99.90
70820;DHT22;58439;51.046;13.692;2023-03-14T19:58:59;3.60;99.90
70820;DHT22;58439;51.046;13.692;2023-03-14T20:01:30;3.50;99.90
70820;DHT22;58439;51.046;13.692;2023-03-14T20:05:02;3.60;99.90
70820;DHT22;58439;51.046;13.692;2023-03-14T20:07:36;3.50;99.90
70820;DHT22;58439;51.046;13.692;2023-03-14T20:10:05;3.50;99.90
70820;DHT22;58439;51.046;13.692;2023-03-14T20:12:34;3.50;99.90
70820;DHT22;58439;51.046;13.692;2023-03-14T20:15:02;3.50;99.90
70820;DHT22;58439;51.046;13.692;2023-03-14T20:17:30;3.50;99.90
70820;DHT22;58439;51.046;13.692;2023-03-14T20:19:58;3.60;99.90
70820;DHT22;58439;51.046;13.692;2023-03-14T20:22:25;3.50;99.90
70820;DHT22;58439;51.046;13.692;2023-03-14T20:24:53;3.60;99.90
70820;DHT22;58439;51.046;13.692;2023-03-14T20:27:20;3.60;99.90
70820;DHT22;58439;51.046;13.692;2023-03-14T20:29:48;3.60;99.90
70820;DHT22;58439;51.046;13.692;2023-03-14T20:32:15;3.60;99.90
70820;DHT22;58439;51.046;13.692;2023-03-14T20:34:44;3.70;99.90
70820;DHT22;58439;51.046;13.692;2023-03-14T20:37:12;3.70;99.90
70820;DHT22;58439;51.046;13.692;2023-03-14T20:40:14;3.80;99.90
70820;DHT22;58439;51.046;13.692;2023-03-14T20:43:15;3.80;99.90
70820;DHT22;58439;51.046;13.692;2023-03-14T20:45:49;3.90;99.90
70820;DHT22;58439;51.046;13.692;2023-03-14T20:48:18;3.90;99.90
70820;DHT22;58439;51.046;13.692;2023-03-14T20:50:46;3.90;99.90
70820;DHT22;58439;51.046;13.692;2023-03-14T20:53:14;3.80;99.90
70820;DHT22;58439;51.046;13.692;2023-03-14T20:55:42;3.80;99.90